Aero Club Salland

EHDS · Overijssel, 荷兰

罗盘
风向 的 Aero Club Salland 9/27
风: 2 kt, 1 beaufort


2 kt
改变
0 1.000 2.000 3.000 4.000 5.000
CAVOK
METAR EDDG 030720Z AUTO VRB02KT CAVOK 10/09 Q1026 NOSIG

METAR Aero Club Salland - EHDS

Aero Club Salland是Lemelerveld,荷兰中的小机场。 该机场有一条跑道: 9/27. 该领域的国际民航组织标志是EHDS.

这份报告是针对2022年10月3日 09:20, 当地时间在Münster Osnabrück Airport进行的。

机场观察

可变方向的风很小或没有风。

天气为CAVOK。这意味着在5.000 ft或MSA(最低安全高度)以下(以较高者为准)以下没有云。这也意味着没有观测到积雨云或高耸的积云,可见度为10 km 或者更多或更高。此外,不会有雾,降雨或其他重要天气。

温度为10 °C,阵风为9 °C。 露点为9 °C,相对湿度为94%。 海平面上的气压为1026 hPa (QNH)。

白天

今天,太阳从07:39升起,在19:08降落。 这适用于Aero Club Salland,世界夏令时可能有所不同。 当地时间与世界标准时间之间的时差为+2 小时。 夏令时目前正在进行中。

公司介绍

在这个机场,你可以找到滑翔机飞行俱乐部。 本场上唯一已知的公司是Vliegles.nl。

体会

在这个机场有飞行课程。 你可以在没有任何经验的情况下预订飞行课程。 在Aero Club Salland预订最多的飞行课程类型是Glider flying day course Salland。 这些课程的价格从€ 149开始。 在这里阅读更多关于Glider flying day course Salland的信息。你也可以在这个网站上进行预订。

跑道

Id 标题 侧风 逆风 侧风 %
9/27 090°-270° 2 kt 100 %

逆风成分最大的方向会被突出显示,并用于横风计算。 这并不一定意味着这个方向在使用。

温度 & 天气

温度 10 °C
露点 9 °C
相对湿度 94%
风寒 9 °C
Kp-index 2 (0-9)

白天

日出
07:33
中午
13:18
日落
19:02 (9h 23m)

小工具

你想在你的网站上有一个关于Aero Club Salland的当前航空天气(METAR)的小部件吗?

</> 显示HTML代码

我们和第三方通过cookies跟踪您在我们网站上的上网行为。如果您继续,我们认为您同意我们的cookie政策。 了解更多